sensor_id;sensor_type;location;lat;lon;timestamp;pressure;altitude;pressure_sealevel;temperature;humidity
63946;BME280;50122;56.330;43.838;2023-03-23T00:00:05;100630.28;;;1.11;76.23
63946;BME280;50122;56.330;43.838;2023-03-23T00:02:31;100630.31;;;1.19;76.66
63946;BME280;50122;56.330;43.838;2023-03-23T00:05:04;100620.75;;;1.21;77.50
63946;BME280;50122;56.330;43.838;2023-03-23T00:07:34;100620.75;;;1.23;76.41
63946;BME280;50122;56.330;43.838;2023-03-23T00:10:00;100622.50;;;1.22;77.17
63946;BME280;50122;56.330;43.838;2023-03-23T00:12:30;100622.47;;;1.27;76.69
63946;BME280;50122;56.330;43.838;2023-03-23T00:15:07;100622.47;;;1.30;77.22
63946;BME280;50122;56.330;43.838;2023-03-23T00:17:33;100616.41;;;1.29;77.09
63946;BME280;50122;56.330;43.838;2023-03-23T00:20:00;100625.06;;;1.31;77.75
63946;BME280;50122;56.330;43.838;2023-03-23T00:22:28;100626.81;;;1.34;78.00
63946;BME280;50122;56.330;43.838;2023-03-23T00:24:53;100620.75;;;1.33;77.46
63946;BME280;50122;56.330;43.838;2023-03-23T00:27:21;100613.81;;;1.26;76.66
63946;BME280;50122;56.330;43.838;2023-03-23T00:29:50;100616.41;;;1.17;77.67
63946;BME280;50122;56.330;43.838;2023-03-23T00:32:21;100610.34;;;1.09;77.24
63946;BME280;50122;56.330;43.838;2023-03-23T00:34:54;100604.25;;;1.03;77.97
63946;BME280;50122;56.330;43.838;2023-03-23T00:37:20;100605.13;;;0.99;77.38
63946;BME280;50122;56.330;43.838;2023-03-23T00:39:46;100606.88;;;1.00;78.16
63946;BME280;50122;56.330;43.838;2023-03-23T00:42:14;100598.19;;;1.08;79.02
63946;BME280;50122;56.330;43.838;2023-03-23T00:44:40;100598.19;;;1.15;79.30
63946;BME280;50122;56.330;43.838;2023-03-23T00:47:06;100600.81;;;1.23;79.16
63946;BME280;50122;56.330;43.838;2023-03-23T00:49:34;100605.13;;;1.30;78.91
63946;BME280;50122;56.330;43.838;2023-03-23T00:52:01;100606.00;;;1.42;78.71
63946;BME280;50122;56.330;43.838;2023-03-23T00:54:27;100597.28;;;1.53;78.56
63946;BME280;50122;56.330;43.838;2023-03-23T00:56:53;100598.13;;;1.62;77.76
63946;BME280;50122;56.330;43.838;2023-03-23T00:59:20;100594.63;;;1.69;77.73
63946;BME280;50122;56.330;43.838;2023-03-23T01:01:46;100596.34;;;1.76;77.72
63946;BME280;50122;56.330;43.838;2023-03-23T01:04:12;100596.38;;;1.79;77.00
63946;BME280;50122;56.330;43.838;2023-03-23T01:06:39;100593.75;;;1.81;76.11
63946;BME280;50122;56.330;43.838;2023-03-23T01:09:08;100592.00;;;1.84;76.22
63946;BME280;50122;56.330;43.838;2023-03-23T01:11:34;100590.25;;;1.85;75.58
63946;BME280;50122;56.330;43.838;2023-03-23T01:14:00;100588.56;;;1.81;76.38
63946;BME280;50122;56.330;43.838;2023-03-23T01:16:26;100584.22;;;1.78;75.54
63946;BME280;50122;56.330;43.838;2023-03-23T01:18:53;100579.03;;;1.73;76.33
63946;BME280;50122;56.330;43.838;2023-03-23T01:21:19;100581.63;;;1.72;76.08
63946;BME280;50122;56.330;43.838;2023-03-23T01:23:46;100586.81;;;1.75;76.56
63946;BME280;50122;56.330;43.838;2023-03-23T01:26:18;100575.53;;;1.73;75.91
63946;BME280;50122;56.330;43.838;2023-03-23T01:28:44;100580.72;;;1.74;75.76
63946;BME280;50122;56.330;43.838;2023-03-23T01:31:15;100592.03;;;1.78;76.32
63946;BME280;50122;56.330;43.838;2023-03-23T01:33:42;100572.91;;;1.84;75.45
63946;BME280;50122;56.330;43.838;2023-03-23T01:36:14;100576.31;;;1.92;75.07
63946;BME280;50122;56.330;43.838;2023-03-23T01:38:42;100577.19;;;1.96;75.41
63946;BME280;50122;56.330;43.838;2023-03-23T01:41:08;100575.44;;;1.96;75.75
63946;BME280;50122;56.330;43.838;2023-03-23T01:43:34;100584.97;;;2.02;75.64
63946;BME280;50122;56.330;43.838;2023-03-23T01:45:59;100583.25;;;2.07;74.97
63946;BME280;50122;56.330;43.838;2023-03-23T01:48:34;100581.47;;;2.09;75.08
63946;BME280;50122;56.330;43.838;2023-03-23T01:51:12;100588.44;;;2.12;74.79
63946;BME280;50122;56.330;43.838;2023-03-23T01:53:43;100577.97;;;2.18;74.86
63946;BME280;50122;56.330;43.838;2023-03-23T01:56:11;100571.88;;;2.22;74.16
63946;BME280;50122;56.330;43.838;2023-03-23T01:58:40;100565.78;;;2.24;73.46
63946;BME280;50122;56.330;43.838;2023-03-23T02:01:08;100574.44;;;2.28;74.24
63946;BME280;50122;56.330;43.838;2023-03-23T02:03:38;100583.94;;;2.35;73.49
63946;BME280;50122;56.330;43.838;2023-03-23T02:06:05;100575.22;;;2.41;73.59
63946;BME280;50122;56.330;43.838;2023-03-23T02:08:32;100581.31;;;2.45;73.16
63946;BME280;50122;56.330;43.838;2023-03-23T02:10:59;100588.28;;;2.46;73.07
63946;BME280;50122;56.330;43.838;2023-03-23T02:13:25;100583.03;;;2.50;73.13
63946;BME280;50122;56.330;43.838;2023-03-23T02:27:12;100576.78;;;2.73;72.70
63946;BME280;50122;56.330;43.838;2023-03-23T02:30:22;100573.28;;;2.74;71.98
63946;BME280;50122;56.330;43.838;2023-03-23T02:35:50;100573.25;;;2.77;71.69
63946;BME280;50122;56.330;43.838;2023-03-23T02:38:40;100571.53;;;2.77;72.15
63946;BME280;50122;56.330;43.838;2023-03-23T02:41:10;100558.47;;;2.79;71.72
63946;BME280;50122;56.330;43.838;2023-03-23T02:43:40;100566.25;;;2.84;72.55
63946;BME280;50122;56.330;43.838;2023-03-23T02:46:10;100567.09;;;2.87;72.79
63946;BME280;50122;56.330;43.838;2023-03-23T02:48:36;100573.19;;;2.89;71.54
63946;BME280;50122;56.330;43.838;2023-03-23T02:51:04;100574.91;;;2.89;71.53
63946;BME280;50122;56.330;43.838;2023-03-23T02:53:33;100572.31;;;2.90;71.82
63946;BME280;50122;56.330;43.838;2023-03-23T02:56:02;100569.69;;;2.89;72.34
63946;BME280;50122;56.330;43.838;2023-03-23T02:58:34;100569.69;;;2.87;72.09
63946;BME280;50122;56.330;43.838;2023-03-23T03:01:46;100566.22;;;2.90;71.76
63946;BME280;50122;56.330;43.838;2023-03-23T03:04:14;100565.34;;;2.91;71.60
63946;BME280;50122;56.330;43.838;2023-03-23T03:12:34;100571.38;;;2.98;71.80
63946;BME280;50122;56.330;43.838;2023-03-23T03:18:39;100573.94;;;3.05;71.58
63946;BME280;50122;56.330;43.838;2023-03-23T03:21:10;100575.63;;;3.09;71.02
63946;BME280;50122;56.330;43.838;2023-03-23T03:23:39;100569.50;;;3.13;71.30
63946;BME280;50122;56.330;43.838;2023-03-23T03:26:07;100570.31;;;3.20;71.04
63946;BME280;50122;56.330;43.838;2023-03-23T03:28:35;100571.19;;;3.22;71.25
63946;BME280;50122;56.330;43.838;2023-03-23T03:31:03;100572.88;;;3.23;70.67
63946;BME280;50122;56.330;43.838;2023-03-23T03:33:30;100566.78;;;3.24;70.86
63946;BME280;50122;56.330;43.838;2023-03-23T03:36:00;100564.16;;;3.27;70.32
63946;BME280;50122;56.330;43.838;2023-03-23T03:38:27;100571.06;;;3.32;70.77
63946;BME280;50122;56.330;43.838;2023-03-23T03:40:55;100570.22;;;3.33;70.17
63946;BME280;50122;56.330;43.838;2023-03-23T03:43:21;100567.56;;;3.36;70.51
63946;BME280;50122;56.330;43.838;2023-03-23T03:45:46;100564.94;;;3.37;69.83
63946;BME280;50122;56.330;43.838;2023-03-23T03:48:12;100565.78;;;3.39;70.28
63946;BME280;50122;56.330;43.838;2023-03-23T03:50:39;100563.97;;;3.47;69.40
63946;BME280;50122;56.330;43.838;2023-03-23T03:53:06;100564.81;;;3.51;69.12
63946;BME280;50122;56.330;43.838;2023-03-23T03:55:32;100571.75;;;3.52;69.51
63946;BME280;50122;56.330;43.838;2023-03-23T03:58:04;100575.16;;;3.59;68.83
63946;BME280;50122;56.330;43.838;2023-03-23T04:00:30;100587.28;;;3.66;68.68
63946;BME280;50122;56.330;43.838;2023-03-23T04:02:56;100577.63;;;3.71;68.57
63946;BME280;50122;56.330;43.838;2023-03-23T04:05:25;100574.13;;;3.74;68.54
63946;BME280;50122;56.330;43.838;2023-03-23T04:07:54;100568.84;;;3.81;68.33
63946;BME280;50122;56.330;43.838;2023-03-23T04:10:27;100573.13;;;3.87;67.72
63946;BME280;50122;56.330;43.838;2023-03-23T04:12:53;100571.38;;;3.86;67.96
63946;BME280;50122;56.330;43.838;2023-03-23T04:15:18;100570.47;;;3.90;67.32
63946;BME280;50122;56.330;43.838;2023-03-23T20:44:55;100074.19;;;6.21;76.86
63946;BME280;50122;56.330;43.838;2023-03-23T20:47:25;100071.38;;;6.29;76.84
63946;BME280;50122;56.330;43.838;2023-03-23T20:49:54;100074.69;;;6.34;76.81
63946;BME280;50122;56.330;43.838;2023-03-23T20:52:22;100060.47;;;6.41;76.52
63946;BME280;50122;56.330;43.838;2023-03-23T20:54:58;100069.13;;;6.45;75.81
63946;BME280;50122;56.330;43.838;2023-03-23T20:57:26;100069.88;;;6.48;75.73
63946;BME280;50122;56.330;43.838;2023-03-23T20:59:55;100060.22;;;6.50;75.91
63946;BME280;50122;56.330;43.838;2023-03-23T21:02:23;100060.00;;;6.56;75.54
63946;BME280;50122;56.330;43.838;2023-03-23T21:04:55;100058.13;;;6.60;74.99
63946;BME280;50122;56.330;43.838;2023-03-23T21:07:23;100052.81;;;6.63;75.10
63946;BME280;50122;56.330;43.838;2023-03-23T21:09:52;100053.66;;;6.64;75.14
63946;BME280;50122;56.330;43.838;2023-03-23T21:12:19;100051.88;;;6.64;74.63
63946;BME280;50122;56.330;43.838;2023-03-23T21:14:48;100047.53;;;6.65;74.77
63946;BME280;50122;56.330;43.838;2023-03-23T21:17:14;100050.94;;;6.67;74.82
63946;BME280;50122;56.330;43.838;2023-03-23T21:19:42;100050.94;;;6.67;74.51
63946;BME280;50122;56.330;43.838;2023-03-23T21:22:09;100044.88;;;6.65;74.61
63946;BME280;50122;56.330;43.838;2023-03-23T21:24:35;100046.63;;;6.64;74.60
63946;BME280;50122;56.330;43.838;2023-03-23T21:27:06;100033.56;;;6.63;75.03
63946;BME280;50122;56.330;43.838;2023-03-23T21:29:32;100042.38;;;6.62;74.29
63946;BME280;50122;56.330;43.838;2023-03-23T21:31:59;100031.03;;;6.59;74.39
63946;BME280;50122;56.330;43.838;2023-03-23T21:34:35;100028.41;;;6.59;74.33
63946;BME280;50122;56.330;43.838;2023-03-23T21:37:02;100025.88;;;6.56;74.77
63946;BME280;50122;56.330;43.838;2023-03-23T21:39:29;100032.09;;;6.54;74.82
63946;BME280;50122;56.330;43.838;2023-03-23T21:41:55;100020.84;;;6.50;74.64
63946;BME280;50122;56.330;43.838;2023-03-23T21:44:25;100020.84;;;6.50;75.00
63946;BME280;50122;56.330;43.838;2023-03-23T21:46:52;100014.69;;;6.50;75.00
63946;BME280;50122;56.330;43.838;2023-03-23T21:49:20;100008.66;;;6.48;75.01
63946;BME280;50122;56.330;43.838;2023-03-23T21:51:46;100015.69;;;6.47;74.49
63946;BME280;50122;56.330;43.838;2023-03-23T21:54:14;100007.06;;;6.42;74.50
63946;BME280;50122;56.330;43.838;2023-03-23T21:56:41;100001.28;;;6.31;74.47
63946;BME280;50122;56.330;43.838;2023-03-23T21:59:08;99998.81;;;6.26;75.30
63946;BME280;50122;56.330;43.838;2023-03-23T22:01:35;99992.00;;;6.20;75.30
63946;BME280;50122;56.330;43.838;2023-03-23T22:04:03;99992.00;;;6.20;75.51
63946;BME280;50122;56.330;43.838;2023-03-23T22:06:30;99995.41;;;6.24;75.51
63946;BME280;50122;56.330;43.838;2023-03-23T22:09:01;99991.78;;;6.26;75.42
63946;BME280;50122;56.330;43.838;2023-03-23T22:11:30;99986.50;;;6.28;75.19
63946;BME280;50122;56.330;43.838;2023-03-23T22:13:58;99985.56;;;6.31;74.77
63946;BME280;50122;56.330;43.838;2023-03-23T22:16:26;99977.56;;;6.34;74.89
63946;BME280;50122;56.330;43.838;2023-03-23T22:18:54;99971.28;;;6.39;74.48
63946;BME280;50122;56.330;43.838;2023-03-23T22:21:25;99963.19;;;6.47;74.15
63946;BME280;50122;56.330;43.838;2023-03-23T22:23:55;99965.53;;;6.55;74.09
63946;BME280;50122;56.330;43.838;2023-03-23T22:26:22;99959.13;;;6.64;73.03
63946;BME280;50122;56.330;43.838;2023-03-23T22:28:49;99958.88;;;6.71;73.08
63946;BME280;50122;56.330;43.838;2023-03-23T22:31:21;99961.31;;;6.77;72.59
63946;BME280;50122;56.330;43.838;2023-03-23T22:33:50;99956.00;;;6.79;72.14
63946;BME280;50122;56.330;43.838;2023-03-23T22:36:20;99966.47;;;6.81;72.14
63946;BME280;50122;56.330;43.838;2023-03-23T22:38:48;99957.63;;;6.83;71.69
63946;BME280;50122;56.330;43.838;2023-03-23T22:41:20;99967.97;;;6.88;71.34
63946;BME280;50122;56.330;43.838;2023-03-23T22:43:47;99964.34;;;6.90;71.64
63946;BME280;50122;56.330;43.838;2023-03-23T22:46:17;99961.72;;;6.90;71.26
63946;BME280;50122;56.330;43.838;2023-03-23T22:48:44;99960.03;;;6.89;71.43
63946;BME280;50122;56.330;43.838;2023-03-23T22:51:13;99959.09;;;6.92;71.51
63946;BME280;50122;56.330;43.838;2023-03-23T22:53:41;99942.44;;;6.91;71.38
63946;BME280;50122;56.330;43.838;2023-03-23T22:56:08;99949.53;;;6.89;71.35
63946;BME280;50122;56.330;43.838;2023-03-23T22:58:36;99949.53;;;6.89;71.39
63946;BME280;50122;56.330;43.838;2023-03-23T23:01:10;99945.13;;;6.90;70.83
63946;BME280;50122;56.330;43.838;2023-03-23T23:03:39;99951.19;;;6.92;71.23
63946;BME280;50122;56.330;43.838;2023-03-23T23:06:06;99946.84;;;6.91;71.24
63946;BME280;50122;56.330;43.838;2023-03-23T23:08:33;99947.69;;;6.91;71.15
63946;BME280;50122;56.330;43.838;2023-03-23T23:11:01;99945.94;;;6.92;71.34
63946;BME280;50122;56.330;43.838;2023-03-23T23:13:28;99935.47;;;6.90;71.43
63946;BME280;50122;56.330;43.838;2023-03-23T23:16:00;99937.19;;;6.91;71.24
63946;BME280;50122;56.330;43.838;2023-03-23T23:18:29;99932.84;;;6.90;70.89
63946;BME280;50122;56.330;43.838;2023-03-23T23:20:58;99926.00;;;6.86;70.70
63946;BME280;50122;56.330;43.838;2023-03-23T23:23:26;99926.09;;;6.83;71.09
63946;BME280;50122;56.330;43.838;2023-03-23T23:25:54;99924.31;;;6.84;70.88
63946;BME280;50122;56.330;43.838;2023-03-23T23:28:21;99921.81;;;6.81;71.25
63946;BME280;50122;56.330;43.838;2023-03-23T23:30:49;99919.19;;;6.81;71.10
63946;BME280;50122;56.330;43.838;2023-03-23T23:33:16;99908.69;;;6.81;71.29
63946;BME280;50122;56.330;43.838;2023-03-23T23:35:44;99910.53;;;6.77;70.98
63946;BME280;50122;56.330;43.838;2023-03-23T23:38:11;99900.09;;;6.75;71.19
63946;BME280;50122;56.330;43.838;2023-03-23T23:40:40;99909.69;;;6.76;70.88
63946;BME280;50122;56.330;43.838;2023-03-23T23:43:10;99900.03;;;6.77;70.62
63946;BME280;50122;56.330;43.838;2023-03-23T23:45:37;99900.09;;;6.75;70.69
63946;BME280;50122;56.330;43.838;2023-03-23T23:48:04;99886.16;;;6.73;70.74
63946;BME280;50122;56.330;43.838;2023-03-23T23:50:31;99893.22;;;6.71;71.13
63946;BME280;50122;56.330;43.838;2023-03-23T23:52:58;99893.28;;;6.70;70.96
63946;BME280;50122;56.330;43.838;2023-03-23T23:55:25;99889.78;;;6.69;71.22
63946;BME280;50122;56.330;43.838;2023-03-23T23:57:52;99890.69;;;6.68;70.83
